Time;durP1;ratioP1;P1;durP2;ratioP2;P2;SDS_P1;SDS_P2;PMS_P1;PMS_P2;Temp;Humidity;BMP_temperature;BMP_pressure;BME280_temperature;BME280_humidity;BME280_pressure;Samples;Min_cycle;Max_cycle;Signal;HPM_P1;HPM_P2
2021/10/09 14:31:44;;;;;;;16.73;8.48;;;17.80;99.90;;;;;;5101176;27;20350;-59
2021/10/09 14:34:10;;;;;;;16.75;8.90;;;17.70;99.90;;;;;;5081511;27;20036;-60
2021/10/09 14:36:35;;;;;;;18.75;9.60;;;17.70;99.90;;;;;;5083682;28;20021;-60
2021/10/09 14:39:01;;;;;;;19.02;10.02;;;17.70;99.90;;;;;;5076014;28;20120;-57
2021/10/09 14:41:27;;;;;;;20.10;9.63;;;17.70;99.90;;;;;;5086382;28;20109;-55
2021/10/09 14:43:52;;;;;;;30.20;12.43;;;17.70;99.90;;;;;;5075058;28;20115;-55
2021/10/09 14:46:51;;;;;;;27.95;12.35;;;17.70;99.90;;;;;;5077870;28;20059;-53
2021/10/09 14:49:17;;;;;;;19.52;9.95;;;17.70;99.90;;;;;;5072714;28;20094;-55
2021/10/09 14:52:28;;;;;;;19.58;10.40;;;17.70;99.90;;;;;;5088339;28;20041;-58
2021/10/09 15:18:48;;;;;;;16.77;9.38;;;17.30;99.90;;;;;;5104429;22;20056;-60
2021/10/09 15:21:13;;;;;;;12.27;7.13;;;17.40;99.90;;;;;;5085071;28;20517;-58
2021/10/09 15:23:39;;;;;;;15.18;7.57;;;17.40;99.90;;;;;;5082235;28;20024;-57
2021/10/09 15:26:06;;;;;;;14.73;7.57;;;17.30;99.90;;;;;;5085345;28;20032;-62
2021/10/09 15:28:31;;;;;;;14.13;7.32;;;17.30;99.90;;;;;;5103719;28;20036;-59
2021/10/09 15:30:57;;;;;;;13.38;8.20;;;17.30;99.90;;;;;;5105666;28;20024;-62
2021/10/09 15:33:23;;;;;;;15.30;7.97;;;17.20;99.90;;;;;;5109532;28;20111;-60
2021/10/09 15:35:50;;;;;;;15.70;7.68;;;17.10;99.90;;;;;;5104529;28;20024;-62
2021/10/09 15:38:15;;;;;;;19.38;8.55;;;17.00;99.90;;;;;;5107841;28;20030;-59
2021/10/09 15:40:42;;;;;;;19.92;7.72;;;16.90;99.90;;;;;;5101418;28;20028;-61
2021/10/09 15:43:07;;;;;;;15.13;7.90;;;16.70;99.90;;;;;;5090863;28;20023;-60
2021/10/09 15:45:35;;;;;;;17.95;7.60;;;16.50;99.90;;;;;;5091346;28;20062;-62
2021/10/09 15:48:02;;;;;;;11.27;6.90;;;16.40;99.90;;;;;;5090751;28;20393;-61
2021/10/09 15:50:27;;;;;;;15.63;7.97;;;16.30;99.90;;;;;;5090873;28;20024;-60
2021/10/09 15:52:53;;;;;;;18.83;7.65;;;16.20;99.90;;;;;;5090214;28;20048;-58
2021/10/09 15:55:20;;;;;;;16.33;9.18;;;16.20;99.90;;;;;;5092033;28;20028;-60
2021/10/09 15:57:45;;;;;;;13.90;8.90;;;16.00;99.90;;;;;;5091228;28;20028;-60
2021/10/09 16:00:12;;;;;;;17.17;9.05;;;15.90;99.90;;;;;;5090933;28;20037;-60
2021/10/09 16:02:37;;;;;;;20.10;9.95;;;15.80;99.90;;;;;;5090948;28;20440;-60
2021/10/09 16:05:04;;;;;;;16.83;9.98;;;15.70;99.90;;;;;;5087609;28;20027;-63
2021/10/09 16:07:32;;;;;;;25.20;9.93;;;15.60;99.90;;;;;;5081379;28;20028;-59
2021/10/09 16:09:57;;;;;;;20.02;9.48;;;15.40;99.90;;;;;;5093573;28;20036;-63
2021/10/09 16:12:23;;;;;;;17.17;9.63;;;15.40;99.90;;;;;;5091755;28;20024;-61
2021/10/09 16:14:48;;;;;;;24.23;11.60;;;15.30;99.90;;;;;;5089782;28;20081;-61
2021/10/09 16:17:27;;;;;;;18.23;10.35;;;15.20;99.90;;;;;;5094234;28;20036;-62
2021/10/09 16:19:52;;;;;;;20.27;10.45;;;15.10;99.90;;;;;;5086786;28;20024;-62
2021/10/09 16:22:20;;;;;;;17.00;10.95;;;15.00;99.90;;;;;;5091164;28;20569;-61
2021/10/09 16:24:46;;;;;;;23.45;10.65;;;14.80;99.90;;;;;;5089892;28;20028;-61
2021/10/09 16:27:12;;;;;;;18.17;9.90;;;14.70;99.90;;;;;;5091816;28;20375;-59
2021/10/09 16:29:38;;;;;;;18.60;9.77;;;14.60;99.90;;;;;;5094712;28;20038;-59
2021/10/09 16:32:04;;;;;;;21.65;10.73;;;14.50;99.90;;;;;;5086109;28;20024;-60
2021/10/09 16:34:30;;;;;;;17.63;10.57;;;14.40;99.90;;;;;;5084412;28;20059;-63
2021/10/09 16:36:56;;;;;;;19.77;10.02;;;14.30;99.90;;;;;;5090643;28;20074;-59
2021/10/09 16:39:29;;;;;;;17.30;9.63;;;14.20;99.90;;;;;;5090674;28;20032;-60
2021/10/09 16:41:55;;;;;;;20.95;10.48;;;14.10;99.90;;;;;;5090308;28;20089;-58
2021/10/09 16:44:22;;;;;;;18.67;10.05;;;14.00;99.90;;;;;;5091794;28;20080;-60
2021/10/09 16:46:49;;;;;;;27.58;9.93;;;13.80;99.90;;;;;;5088739;28;20024;-60
2021/10/09 16:49:15;;;;;;;19.08;10.43;;;13.70;99.90;;;;;;5085522;28;20032;-62
2021/10/09 16:51:41;;;;;;;17.25;10.73;;;13.60;99.90;;;;;;5088834;28;20079;-59
2021/10/09 16:54:07;;;;;;;21.23;10.02;;;13.50;99.90;;;;;;5089286;28;20031;-60
2021/10/09 16:56:34;;;;;;;17.52;10.45;;;13.40;99.90;;;;;;5092691;28;20036;-59
2021/10/09 16:59:00;;;;;;;20.40;10.82;;;13.30;99.90;;;;;;5084368;28;20097;-62
2021/10/09 17:01:25;;;;;;;24.05;11.50;;;13.20;99.90;;;;;;5090394;28;20501;-62
2021/10/09 17:03:51;;;;;;;20.70;10.25;;;13.10;99.90;;;;;;5087761;28;20504;-61
2021/10/09 17:06:17;;;;;;;21.08;10.18;;;13.00;99.90;;;;;;5084304;28;20028;-59
2021/10/09 17:08:42;;;;;;;18.25;10.68;;;13.10;99.90;;;;;;5085964;28;20494;-59
2021/10/09 17:11:09;;;;;;;27.60;11.80;;;12.90;99.90;;;;;;5085130;28;20046;-59
2021/10/09 17:13:34;;;;;;;24.02;12.05;;;12.80;99.90;;;;;;5084115;28;20066;-60
2021/10/09 17:16:01;;;;;;;19.67;11.38;;;12.80;99.90;;;;;;5088867;28;20056;-62
2021/10/09 17:18:27;;;;;;;21.80;11.73;;;12.70;99.90;;;;;;5087224;28;20489;-60
2021/10/09 17:20:53;;;;;;;22.90;11.15;;;12.60;99.90;;;;;;5088918;28;20438;-61
2021/10/09 17:23:19;;;;;;;17.45;10.18;;;12.50;99.90;;;;;;5084828;28;20040;-60
2021/10/09 17:25:44;;;;;;;21.23;11.93;;;12.40;99.90;;;;;;5087644;28;20040;-63
2021/10/09 17:28:10;;;;;;;18.67;11.25;;;12.30;99.90;;;;;;5087899;28;20420;-62
2021/10/09 17:30:36;;;;;;;27.63;12.40;;;12.30;99.90;;;;;;5088094;28;20474;-62
2021/10/09 17:33:02;;;;;;;26.00;11.60;;;12.20;99.90;;;;;;5088240;28;20036;-60
2021/10/09 17:35:30;;;;;;;20.63;11.40;;;12.10;99.90;;;;;;5086444;28;20020;-61
2021/10/09 17:37:57;;;;;;;21.55;11.82;;;12.10;99.90;;;;;;5088273;28;20084;-61
2021/10/09 17:40:23;;;;;;;17.02;10.82;;;12.10;99.90;;;;;;5087623;28;20092;-58
2021/10/09 17:42:52;;;;;;;20.60;12.57;;;12.00;99.90;;;;;;5088866;28;20032;-62
2021/10/09 17:45:17;;;;;;;23.27;12.93;;;12.00;99.90;;;;;;5094765;28;20123;-60
2021/10/09 17:47:43;;;;;;;25.33;13.95;;;11.90;99.90;;;;;;5090460;28;20469;-60
2021/10/09 17:50:10;;;;;;;24.75;13.63;;;11.80;99.90;;;;;;5086830;28;20438;-60
2021/10/09 17:52:36;;;;;;;27.77;13.32;;;11.80;99.90;;;;;;5092520;28;20028;-56
2021/10/09 17:55:03;;;;;;;26.02;13.77;;;11.70;99.90;;;;;;5084564;28;20102;-62
2021/10/09 17:57:29;;;;;;;27.05;12.93;;;11.60;99.90;;;;;;5079432;28;20092;-60
2021/10/09 17:59:54;;;;;;;22.13;13.80;;;11.50;99.90;;;;;;5094595;28;20031;-60
2021/10/09 18:02:20;;;;;;;24.25;14.57;;;11.50;99.90;;;;;;5082833;28;20032;-62
2021/10/09 18:04:45;;;;;;;20.92;13.25;;;11.40;99.90;;;;;;5081954;28;20024;-61
2021/10/09 18:07:12;;;;;;;26.30;13.70;;;11.40;99.90;;;;;;5081003;28;20039;-62
2021/10/09 18:09:38;;;;;;;27.60;14.05;;;11.50;99.90;;;;;;5083876;28;20046;-62
2021/10/09 18:12:04;;;;;;;25.15;14.15;;;11.50;99.90;;;;;;5084550;28;20048;-61
2021/10/09 18:14:30;;;;;;;33.03;15.57;;;11.40;99.90;;;;;;5084521;28;20028;-60
2021/10/09 18:16:55;;;;;;;23.55;15.23;;;11.30;99.90;;;;;;5088890;28;20080;-62
2021/10/09 18:19:21;;;;;;;34.95;15.57;;;11.20;99.90;;;;;;5089197;28;20813;-61
2021/10/09 18:21:46;;;;;;;29.63;14.90;;;11.20;99.90;;;;;;5083436;28;20036;-61
2021/10/09 18:24:12;;;;;;;26.52;15.20;;;11.20;99.90;;;;;;5085782;28;20148;-60
2021/10/09 18:26:38;;;;;;;29.33;13.90;;;11.30;99.90;;;;;;5084562;28;20669;-63
2021/10/09 18:29:03;;;;;;;22.52;14.27;;;11.30;99.90;;;;;;5085040;28;20086;-62
2021/10/09 18:31:30;;;;;;;28.48;15.57;;;11.20;99.90;;;;;;5084452;28;20076;-61
2021/10/09 18:33:56;;;;;;;31.00;15.73;;;11.10;99.90;;;;;;5083557;28;20058;-62
2021/10/09 18:36:23;;;;;;;26.95;16.60;;;11.00;99.90;;;;;;5084910;28;20021;-61
2021/10/09 18:38:49;;;;;;;26.33;15.98;;;10.90;99.90;;;;;;5084212;28;20023;-60
2021/10/09 18:41:14;;;;;;;29.88;16.08;;;10.90;99.90;;;;;;5080344;28;20036;-60
2021/10/09 18:43:40;;;;;;;31.45;17.25;;;10.80;99.90;;;;;;5082348;28;20451;-62
2021/10/09 18:46:06;;;;;;;31.83;17.48;;;10.80;99.90;;;;;;5079823;28;20035;-60
2021/10/09 18:48:31;;;;;;;38.00;18.52;;;10.80;99.90;;;;;;5081743;28;20745;-60
2021/10/09 18:50:57;;;;;;;33.97;18.00;;;10.70;99.90;;;;;;5076384;28;20107;-62
2021/10/09 18:53:23;;;;;;;30.52;18.58;;;10.70;99.90;;;;;;5079359;28;20051;-60
2021/10/09 18:55:49;;;;;;;31.17;17.98;;;10.60;99.90;;;;;;5078168;28;20349;-59
2021/10/09 18:58:15;;;;;;;39.55;19.20;;;10.60;99.90;;;;;;5074207;28;20020;-60
2021/10/09 19:00:42;;;;;;;40.33;18.10;;;10.60;99.90;;;;;;5084466;28;20051;-61
2021/10/09 19:03:10;;;;;;;31.88;17.95;;;10.60;99.90;;;;;;5084560;28;20031;-59
2021/10/09 19:05:36;;;;;;;32.88;18.52;;;10.60;99.90;;;;;;5084048;28;20052;-61
2021/10/09 19:08:01;;;;;;;35.22;18.00;;;10.50;99.90;;;;;;5084129;28;20094;-59
2021/10/09 19:10:27;;;;;;;38.08;18.45;;;10.50;99.90;;;;;;5083069;28;20040;-62
2021/10/09 19:12:52;;;;;;;36.13;20.42;;;10.40;99.90;;;;;;5085143;28;20028;-58
2021/10/09 19:15:18;;;;;;;49.55;25.90;;;10.40;99.90;;;;;;5081494;28;20031;-57
2021/10/09 19:17:44;;;;;;;48.80;23.48;;;10.30;99.90;;;;;;5086617;28;20082;-59
2021/10/09 19:20:12;;;;;;;47.95;24.15;;;10.30;99.90;;;;;;5087421;28;20082;-59
2021/10/09 19:22:40;;;;;;;49.25;23.20;;;10.30;99.90;;;;;;5086706;28;20016;-58
2021/10/09 19:25:06;;;;;;;38.15;20.77;;;10.40;99.90;;;;;;5087828;28;20689;-59
2021/10/09 19:27:32;;;;;;;36.22;20.45;;;10.40;99.90;;;;;;5087359;28;20048;-59
2021/10/09 19:29:57;;;;;;;45.70;26.63;;;10.30;99.90;;;;;;5087757;28;20030;-58
2021/10/09 19:32:23;;;;;;;59.22;30.85;;;10.20;99.90;;;;;;5088265;28;20051;-60
2021/10/09 19:37:52;;;;;;;60.70;29.27;;;10.10;99.90;;;;;;5039085;28;20130;-60
2021/10/09 19:40:18;;;;;;;60.47;29.42;;;10.00;99.90;;;;;;5042481;28;20060;-60
2021/10/09 19:42:44;;;;;;;51.08;28.75;;;9.90;99.90;;;;;;5062181;28;20044;-56
2021/10/09 19:45:09;;;;;;;53.03;27.02;;;9.90;99.90;;;;;;5087354;28;20136;-59
2021/10/09 19:47:36;;;;;;;65.80;29.75;;;9.80;99.90;;;;;;5086922;28;20028;-59
2021/10/09 19:50:05;;;;;;;45.72;25.90;;;9.80;99.90;;;;;;5087994;28;20023;-56
2021/10/09 19:52:34;;;;;;;51.55;29.23;;;9.90;99.90;;;;;;5087379;28;20540;-60
2021/10/09 19:55:08;;;;;;;49.38;28.65;;;9.90;99.90;;;;;;5088091;28;20020;-59
2021/10/09 19:57:35;;;;;;;48.92;26.27;;;9.90;99.90;;;;;;5088482;28;20032;-57
2021/10/09 20:00:03;;;;;;;45.92;26.45;;;9.90;99.90;;;;;;5087485;28;20016;-61
2021/10/09 20:02:28;;;;;;;47.28;25.52;;;9.80;99.90;;;;;;5087420;28;20028;-58
2021/10/09 20:04:54;;;;;;;39.95;23.80;;;9.80;99.90;;;;;;5090042;28;20024;-58
2021/10/09 20:07:19;;;;;;;39.83;23.17;;;9.90;99.90;;;;;;5088416;28;20024;-59
2021/10/09 20:14:37;;;;;;;42.83;21.95;;;9.80;99.90;;;;;;5088336;28;20020;-54
2021/10/09 20:17:04;;;;;;;38.88;22.65;;;9.70;99.90;;;;;;5089455;28;20073;-56
2021/10/09 20:19:31;;;;;;;44.92;22.73;;;9.70;99.90;;;;;;5090357;28;20103;-56
2021/10/09 20:22:05;;;;;;;38.70;21.45;;;9.60;99.90;;;;;;5088067;28;20478;-58
2021/10/09 20:24:31;;;;;;;38.97;21.15;;;9.60;99.90;;;;;;5089411;28;20024;-57
2021/10/09 20:26:56;;;;;;;37.53;20.55;;;9.60;99.90;;;;;;5091888;28;20396;-59
2021/10/09 20:29:22;;;;;;;38.05;19.63;;;9.60;99.90;;;;;;5089241;28;20016;-58
2021/10/09 20:31:47;;;;;;;38.78;20.50;;;9.60;99.90;;;;;;5087801;28;20485;-58
2021/10/09 20:34:13;;;;;;;33.13;19.98;;;9.60;99.90;;;;;;5085725;28;20052;-59
2021/10/09 20:36:39;;;;;;;36.80;20.73;;;9.50;99.90;;;;;;5084462;28;20044;-60
2021/10/09 20:39:05;;;;;;;34.22;19.73;;;9.50;99.90;;;;;;5086253;28;20101;-56
2021/10/09 20:41:31;;;;;;;35.53;19.42;;;9.40;99.90;;;;;;5087405;28;20020;-58
2021/10/09 20:43:57;;;;;;;37.53;20.35;;;9.40;99.90;;;;;;5086085;28;20035;-59
2021/10/09 20:46:23;;;;;;;39.08;18.83;;;9.50;99.90;;;;;;5090017;28;20039;-57
2021/10/09 20:48:48;;;;;;;41.75;18.80;;;9.50;99.90;;;;;;5086437;28;20027;-59
2021/10/09 20:51:14;;;;;;;34.85;18.63;;;9.40;99.90;;;;;;5088086;28;20034;-60
2021/10/09 20:53:39;;;;;;;31.33;17.88;;;9.40;99.90;;;;;;5088479;28;20025;-60
2021/10/09 20:56:05;;;;;;;30.48;18.25;;;9.50;99.90;;;;;;5087600;28;20035;-59
2021/10/09 20:58:31;;;;;;;31.92;16.42;;;9.40;99.90;;;;;;5085623;28;20494;-58
2021/10/09 21:00:57;;;;;;;29.77;17.38;;;9.40;99.90;;;;;;5087417;28;20024;-59
2021/10/09 21:03:23;;;;;;;27.98;17.75;;;9.30;99.90;;;;;;5089571;28;20107;-59
2021/10/09 21:05:48;;;;;;;31.17;17.58;;;9.30;99.90;;;;;;5087867;28;20055;-60
2021/10/09 21:08:15;;;;;;;33.03;17.40;;;9.20;99.90;;;;;;5089025;28;20070;-61
2021/10/09 21:10:51;;;;;;;31.83;18.42;;;9.20;99.90;;;;;;5087419;28;20401;-61
2021/10/09 21:13:35;;;;;;;31.35;16.75;;;9.20;99.90;;;;;;5089341;28;20546;-59
2021/10/09 21:24:12;;;;;;;27.05;16.90;;;8.90;99.90;;;;;;5065802;28;20103;-58
2021/10/09 21:26:38;;;;;;;32.25;17.52;;;8.90;99.90;;;;;;5066306;28;20021;-59
2021/10/09 21:29:03;;;;;;;27.02;15.98;;;8.90;99.90;;;;;;5067416;28;20064;-57
2021/10/09 21:31:29;;;;;;;28.13;16.60;;;8.80;99.90;;;;;;5069877;28;20086;-60
2021/10/09 21:33:54;;;;;;;29.13;17.85;;;8.80;99.90;;;;;;5047815;28;20135;-58
2021/10/09 21:36:22;;;;;;;30.77;16.90;;;8.80;99.90;;;;;;5069880;28;20024;-58
2021/10/09 21:38:48;;;;;;;31.52;17.13;;;8.70;99.90;;;;;;5068892;28;20020;-58
2021/10/09 21:41:14;;;;;;;29.70;16.50;;;8.70;99.90;;;;;;5068457;28;20035;-57
2021/10/09 21:43:39;;;;;;;27.75;16.70;;;8.70;99.90;;;;;;5046585;28;20028;-57
2021/10/09 21:46:05;;;;;;;28.30;15.18;;;8.70;99.90;;;;;;5044892;28;20052;-56
2021/10/09 21:48:31;;;;;;;27.90;16.23;;;8.80;99.90;;;;;;5056393;28;20490;-57
2021/10/09 21:50:56;;;;;;;29.63;15.60;;;8.80;99.90;;;;;;5072894;28;20031;-60
2021/10/09 21:53:22;;;;;;;24.83;15.25;;;8.80;99.90;;;;;;5061476;28;20036;-57
2021/10/09 21:55:48;;;;;;;28.33;14.80;;;8.70;99.90;;;;;;5064783;28;20028;-55
2021/10/09 21:58:19;;;;;;;24.02;14.75;;;8.70;99.90;;;;;;5056911;28;20078;-54
2021/10/09 22:16:53;;;;;;;27.15;15.68;;;8.60;99.90;;;;;;5068936;28;20458;-60
2021/10/09 22:19:41;;;;;;;29.23;15.43;;;8.50;99.90;;;;;;5065771;28;20039;-58
2021/10/09 22:33:04;;;;;;;29.40;15.27;;;8.20;99.90;;;;;;5066290;28;20035;-58
2021/10/09 22:35:29;;;;;;;26.45;15.18;;;8.20;99.90;;;;;;5066429;28;20024;-58
2021/10/09 22:37:55;;;;;;;25.42;15.13;;;8.30;99.90;;;;;;5066903;28;20149;-55
2021/10/09 22:40:22;;;;;;;27.05;15.32;;;8.30;99.90;;;;;;5062092;28;20099;-57
2021/10/09 22:42:51;;;;;;;24.70;15.02;;;8.30;99.90;;;;;;5063700;28;20498;-56
2021/10/09 22:45:17;;;;;;;24.95;14.48;;;8.30;99.90;;;;;;5064082;28;20732;-56
2021/10/09 22:47:42;;;;;;;26.38;14.07;;;8.30;99.90;;;;;;5060858;28;20111;-58
2021/10/09 22:50:08;;;;;;;30.95;15.77;;;8.20;99.90;;;;;;5063307;28;20032;-58
2021/10/09 22:52:34;;;;;;;27.70;14.73;;;8.20;99.90;;;;;;5066054;28;20025;-56
2021/10/09 22:55:00;;;;;;;26.13;15.35;;;8.20;99.90;;;;;;5065666;28;20450;-53
2021/10/09 22:57:25;;;;;;;25.58;15.40;;;8.30;99.90;;;;;;5075943;28;20020;-58
2021/10/09 22:59:51;;;;;;;20.65;13.43;;;8.30;99.90;;;;;;5067026;28;20028;-57
2021/10/09 23:02:16;;;;;;;27.05;15.07;;;8.30;99.90;;;;;;5066881;28;20077;-59
2021/10/09 23:04:42;;;;;;;26.52;14.25;;;8.30;99.90;;;;;;5070603;28;20138;-59
2021/10/09 23:07:09;;;;;;;25.88;14.90;;;8.30;99.90;;;;;;5070267;28;20031;-59
2021/10/09 23:09:35;;;;;;;31.75;16.35;;;8.20;99.90;;;;;;5065828;28;20108;-56
2021/10/09 23:12:01;;;;;;;26.63;14.65;;;8.10;99.90;;;;;;5070705;28;20111;-57
2021/10/09 23:14:26;;;;;;;27.10;14.05;;;8.10;99.90;;;;;;5071678;28;20062;-59
2021/10/09 23:16:52;;;;;;;25.30;14.90;;;8.10;99.90;;;;;;5062438;28;20100;-57
2021/10/09 23:19:17;;;;;;;30.10;15.88;;;8.10;99.90;;;;;;5065382;28;20027;-56
2021/10/09 23:21:43;;;;;;;26.77;15.45;;;8.10;99.90;;;;;;5061868;28;20032;-56
2021/10/09 23:24:09;;;;;;;27.30;15.25;;;8.10;99.90;;;;;;5066760;28;20103;-55
2021/10/09 23:26:34;;;;;;;28.40;15.80;;;8.10;99.90;;;;;;5066861;28;20028;-58
2021/10/09 23:29:00;;;;;;;27.77;15.35;;;8.00;99.90;;;;;;5064675;28;20472;-55
2021/10/09 23:31:26;;;;;;;25.25;15.32;;;7.90;99.90;;;;;;5067124;28;20490;-55
2021/10/09 23:33:51;;;;;;;27.98;15.57;;;7.80;99.90;;;;;;5064030;28;20474;-54
2021/10/09 23:36:17;;;;;;;30.80;16.20;;;7.80;99.90;;;;;;5069568;28;20025;-56
2021/10/09 23:38:43;;;;;;;29.77;16.77;;;7.70;99.90;;;;;;5064396;28;20506;-57
2021/10/09 23:41:15;;;;;;;28.05;15.40;;;7.80;99.90;;;;;;5064252;28;20429;-57
2021/10/09 23:43:42;;;;;;;27.48;15.10;;;7.80;99.90;;;;;;5073098;28;20386;-59
2021/10/09 23:46:09;;;;;;;34.30;17.13;;;7.80;99.90;;;;;;5071917;28;20072;-59
2021/10/09 23:48:35;;;;;;;29.35;15.55;;;7.80;99.90;;;;;;5072008;28;20024;-59
2021/10/09 23:51:02;;;;;;;30.23;15.95;;;7.80;99.90;;;;;;5069065;28;20036;-57
2021/10/09 23:53:28;;;;;;;28.58;15.95;;;7.80;99.90;;;;;;5075565;28;20086;-61
2021/10/09 23:55:54;;;;;;;28.50;16.15;;;7.80;99.90;;;;;;5060477;28;20036;-58
2021/10/09 23:58:19;;;;;;;26.13;15.75;;;7.80;99.90;;;;;;5067881;28;20499;-59
